Time;durP1;ratioP1;P1;durP2;ratioP2;P2;SDS_P1;SDS_P2;PMS_P1;PMS_P2;Temp;Humidity;BMP_temperature;BMP_pressure;BME280_temperature;BME280_humidity;BME280_pressure;Samples;Min_cycle;Max_cycle;Signal;HPM_P1;HPM_P2
2023/07/19 00:00:12;;;;;;;5.25;3.50;;;;;;;;;;5051128;28;20277;-32
2023/07/19 00:02:39;;;;;;;2.72;2.53;;;;;;;;;;5052166;28;20229;-31
2023/07/19 00:05:07;;;;;;;3.63;3.25;;;;;;;;;;5050578;28;20217;-34
2023/07/19 00:07:35;;;;;;;3.50;2.80;;;;;;;;;;5054994;28;20315;-33
2023/07/19 00:10:03;;;;;;;3.25;2.95;;;;;;;;;;5053371;28;20225;-35
2023/07/19 00:12:30;;;;;;;5.72;3.75;;;;;;;;;;5042220;28;20209;-31
2023/07/19 00:14:57;;;;;;;4.13;3.25;;;;;;;;;;5049723;28;20208;-35
2023/07/19 00:17:24;;;;;;;5.13;3.73;;;;;;;;;;5051086;28;20202;-35
2023/07/19 00:19:51;;;;;;;3.63;2.90;;;;;;;;;;5048012;28;20245;-32
2023/07/19 00:22:18;;;;;;;3.15;2.85;;;;;;;;;;5047700;28;20236;-32
2023/07/19 00:24:47;;;;;;;3.78;3.20;;;;;;;;;;5051887;28;20210;-33
2023/07/19 00:27:14;;;;;;;3.97;3.00;;;;;;;;;;5042307;28;20234;-33
2023/07/19 00:29:41;;;;;;;4.50;2.65;;;;;;;;;;5051163;28;20233;-34
2023/07/19 00:32:08;;;;;;;3.60;3.17;;;;;;;;;;5055685;28;20209;-36
2023/07/19 00:34:36;;;;;;;3.70;2.92;;;;;;;;;;5051325;28;20206;-34
2023/07/19 00:37:03;;;;;;;3.55;3.17;;;;;;;;;;5042763;28;20206;-33
2023/07/19 00:39:30;;;;;;;5.15;3.58;;;;;;;;;;5056458;28;20316;-35
2023/07/19 00:41:59;;;;;;;3.95;3.38;;;;;;;;;;5043968;28;20202;-30
2023/07/19 00:44:26;;;;;;;6.38;3.42;;;;;;;;;;5047462;28;20228;-35
2023/07/19 00:46:53;;;;;;;4.18;3.70;;;;;;;;;;5050491;28;20216;-34
2023/07/19 00:49:21;;;;;;;3.50;3.20;;;;;;;;;;5042050;28;20258;-33
2023/07/19 00:51:48;;;;;;;4.18;2.85;;;;;;;;;;5051502;28;20209;-32
2023/07/19 00:54:15;;;;;;;4.97;3.00;;;;;;;;;;5050770;28;20237;-32
2023/07/19 00:56:43;;;;;;;3.93;3.07;;;;;;;;;;5046123;28;20664;-30
2023/07/19 00:59:12;;;;;;;3.50;2.85;;;;;;;;;;5050508;28;20224;-32
2023/07/19 01:01:40;;;;;;;3.30;2.90;;;;;;;;;;5050197;28;20205;-32
2023/07/19 01:04:07;;;;;;;5.72;3.53;;;;;;;;;;5050643;28;20210;-33
2023/07/19 01:06:34;;;;;;;3.85;3.35;;;;;;;;;;5039909;28;20206;-35
2023/07/19 01:09:01;;;;;;;4.73;3.63;;;;;;;;;;5051717;28;20233;-34
2023/07/19 01:11:29;;;;;;;3.53;3.20;;;;;;;;;;5042313;28;20214;-30
2023/07/19 01:13:56;;;;;;;4.55;3.10;;;;;;;;;;5050364;28;20210;-33
2023/07/19 01:16:25;;;;;;;3.90;2.90;;;;;;;;;;5054041;28;20220;-32
2023/07/19 01:18:52;;;;;;;5.53;3.65;;;;;;;;;;5047024;28;20314;-32
2023/07/19 01:21:19;;;;;;;3.93;3.17;;;;;;;;;;5046327;28;20194;-34
2023/07/19 01:23:47;;;;;;;4.13;3.20;;;;;;;;;;5050946;28;20473;-31
2023/07/19 01:26:14;;;;;;;5.28;3.35;;;;;;;;;;5044917;28;20205;-32
2023/07/19 01:28:42;;;;;;;5.55;3.40;;;;;;;;;;5056208;28;20618;-34
2023/07/19 01:31:11;;;;;;;2.97;2.78;;;;;;;;;;5049742;28;20248;-33
2023/07/19 01:33:39;;;;;;;3.20;2.90;;;;;;;;;;5046493;28;20225;-35
2023/07/19 01:36:07;;;;;;;6.03;3.10;;;;;;;;;;5046766;28;20216;-36
2023/07/19 01:38:34;;;;;;;3.28;2.80;;;;;;;;;;5056013;28;20230;-31
2023/07/19 01:41:03;;;;;;;3.45;2.95;;;;;;;;;;5041911;28;20630;-31
2023/07/19 01:43:30;;;;;;;5.80;3.20;;;;;;;;;;5048832;28;20246;-32
2023/07/19 01:45:59;;;;;;;6.88;3.65;;;;;;;;;;5050684;28;20206;-32
2023/07/19 01:48:26;;;;;;;4.97;3.20;;;;;;;;;;5049475;28;20237;-31
2023/07/19 01:50:53;;;;;;;3.55;2.83;;;;;;;;;;5045308;28;20202;-32
2023/07/19 01:53:20;;;;;;;4.18;3.40;;;;;;;;;;5060735;28;20210;-35
2023/07/19 01:55:47;;;;;;;4.30;3.40;;;;;;;;;;5040454;28;20198;-36
2023/07/19 01:58:16;;;;;;;6.67;3.53;;;;;;;;;;5039183;28;20213;-31
2023/07/19 02:00:43;;;;;;;4.78;2.70;;;;;;;;;;5057939;28;20193;-34
2023/07/19 02:03:10;;;;;;;5.37;3.00;;;;;;;;;;5049408;28;20206;-34
2023/07/19 02:05:37;;;;;;;3.30;2.90;;;;;;;;;;5050623;28;20216;-32
2023/07/19 02:08:04;;;;;;;3.50;3.20;;;;;;;;;;5050524;28;20546;-36
2023/07/19 02:10:31;;;;;;;4.57;3.37;;;;;;;;;;5059755;28;20224;-30
2023/07/19 02:12:59;;;;;;;5.00;3.00;;;;;;;;;;5039421;28;20237;-34
2023/07/19 02:15:27;;;;;;;7.00;3.77;;;;;;;;;;5063992;28;20327;-33
2023/07/19 02:17:54;;;;;;;3.40;3.10;;;;;;;;;;5049294;28;20208;-31
2023/07/19 02:20:21;;;;;;;4.17;3.27;;;;;;;;;;5042191;28;20238;-33
2023/07/19 02:22:49;;;;;;;3.88;3.17;;;;;;;;;;5061904;28;20209;-33
2023/07/19 02:25:16;;;;;;;6.03;3.83;;;;;;;;;;5044988;28;20232;-30
2023/07/19 02:27:43;;;;;;;6.00;3.33;;;;;;;;;;5038390;28;20236;-34
2023/07/19 02:30:10;;;;;;;4.53;3.37;;;;;;;;;;5044614;28;20240;-35
2023/07/19 02:32:40;;;;;;;5.30;4.20;;;;;;;;;;5069533;28;20211;-33
2023/07/19 02:35:07;;;;;;;6.07;3.43;;;;;;;;;;5059359;28;20205;-31
2023/07/19 02:37:34;;;;;;;5.15;2.58;;;;;;;;;;5049393;28;20276;-35
2023/07/19 02:40:01;;;;;;;3.43;3.13;;;;;;;;;;5048975;28;20232;-34
2023/07/19 02:42:28;;;;;;;4.57;3.43;;;;;;;;;;5046257;28;20205;-30
2023/07/19 02:44:55;;;;;;;4.20;3.23;;;;;;;;;;5058534;28;20201;-33
2023/07/19 02:47:22;;;;;;;9.10;3.30;;;;;;;;;;5069011;28;20212;-35
2023/07/19 02:49:52;;;;;;;3.93;3.40;;;;;;;;;;5054510;28;20232;-33
2023/07/19 02:52:19;;;;;;;3.37;3.07;;;;;;;;;;5056765;28;20227;-32
2023/07/19 02:54:46;;;;;;;4.30;3.20;;;;;;;;;;5060707;28;20217;-33
2023/07/19 02:57:13;;;;;;;5.10;2.87;;;;;;;;;;5039706;28;20210;-32
2023/07/19 02:59:40;;;;;;;3.93;3.17;;;;;;;;;;5044869;28;20229;-33
2023/07/19 03:02:07;;;;;;;3.50;3.07;;;;;;;;;;5049082;28;20210;-33
2023/07/19 03:04:34;;;;;;;7.10;3.87;;;;;;;;;;5033995;28;20210;-34
2023/07/19 03:07:03;;;;;;;6.50;4.00;;;;;;;;;;5049826;28;20682;-31
2023/07/19 03:09:30;;;;;;;3.43;3.13;;;;;;;;;;5069981;28;20679;-30
2023/07/19 03:11:57;;;;;;;4.20;3.50;;;;;;;;;;5047057;28;20246;-33
2023/07/19 03:14:24;;;;;;;4.60;2.97;;;;;;;;;;5059389;28;20205;-30
2023/07/19 03:16:52;;;;;;;4.97;2.90;;;;;;;;;;5071822;28;20200;-31
2023/07/19 03:19:19;;;;;;;5.63;3.57;;;;;;;;;;5064225;28;20232;-31
2023/07/19 03:21:46;;;;;;;5.10;3.00;;;;;;;;;;5044171;28;20220;-37
2023/07/19 03:24:14;;;;;;;3.77;3.20;;;;;;;;;;5060747;28;20208;-30
2023/07/19 03:26:41;;;;;;;6.00;3.70;;;;;;;;;;5041164;28;20206;-32
2023/07/19 03:29:08;;;;;;;5.60;3.90;;;;;;;;;;5060402;28;20226;-34
2023/07/19 03:31:36;;;;;;;4.60;3.73;;;;;;;;;;5067796;28;20205;-32
2023/07/19 03:34:03;;;;;;;8.47;3.60;;;;;;;;;;5072924;28;20216;-35
2023/07/19 03:36:30;;;;;;;5.40;3.93;;;;;;;;;;5042734;28;20339;-33
2023/07/19 03:38:57;;;;;;;4.40;3.40;;;;;;;;;;5052404;28;20256;-31
2023/07/19 03:41:25;;;;;;;4.97;2.80;;;;;;;;;;5040902;28;20206;-35
2023/07/19 03:43:53;;;;;;;5.50;3.20;;;;;;;;;;5048440;28;20209;-32
2023/07/19 03:46:20;;;;;;;5.57;3.53;;;;;;;;;;5052132;28;20212;-33
2023/07/19 03:48:47;;;;;;;6.87;3.27;;;;;;;;;;5052270;28;20232;-35
2023/07/19 03:51:14;;;;;;;6.23;3.20;;;;;;;;;;5043875;28;20205;-34
2023/07/19 03:53:41;;;;;;;3.73;3.13;;;;;;;;;;5064744;28;20205;-32
2023/07/19 03:56:08;;;;;;;4.67;3.50;;;;;;;;;;5046898;28;20211;-35
2023/07/19 03:58:39;;;;;;;5.80;3.87;;;;;;;;;;5046337;28;20229;-32
2023/07/19 04:01:06;;;;;;;4.80;3.40;;;;;;;;;;5051730;28;20269;-34
2023/07/19 04:03:34;;;;;;;4.40;3.33;;;;;;;;;;5054937;28;20202;-31
2023/07/19 04:06:01;;;;;;;9.00;3.43;;;;;;;;;;5049606;28;20241;-33
2023/07/19 04:08:30;;;;;;;3.33;2.93;;;;;;;;;;5044077;28;20309;-32
2023/07/19 04:10:58;;;;;;;4.63;3.67;;;;;;;;;;5049008;28;20289;-33
2023/07/19 04:13:26;;;;;;;5.67;3.70;;;;;;;;;;5050238;28;20212;-31
2023/07/19 04:15:54;;;;;;;8.77;3.97;;;;;;;;;;5054085;28;20202;-34
2023/07/19 04:18:22;;;;;;;9.70;3.57;;;;;;;;;;5049969;28;20221;-36
2023/07/19 04:20:54;;;;;;;4.10;3.00;;;;;;;;;;5137333;22;20215;-26
2023/07/19 04:23:21;;;;;;;3.33;2.90;;;;;;;;;;5064844;28;20209;-26
2023/07/19 04:25:48;;;;;;;3.80;2.70;;;;;;;;;;5059311;28;20214;-25
2023/07/19 04:28:15;;;;;;;4.63;3.00;;;;;;;;;;5053399;28;20206;-29
2023/07/19 04:30:42;;;;;;;3.43;3.13;;;;;;;;;;5033984;28;20202;-25
2023/07/19 04:33:11;;;;;;;4.63;3.40;;;;;;;;;;5034420;28;20216;-27
2023/07/19 04:35:38;;;;;;;4.73;3.03;;;;;;;;;;5041160;28;20210;-29
2023/07/19 04:38:06;;;;;;;7.43;3.83;;;;;;;;;;5042384;28;20300;-25
2023/07/19 04:40:33;;;;;;;5.60;3.77;;;;;;;;;;5036575;28;20237;-27
2023/07/19 04:43:01;;;;;;;4.37;3.57;;;;;;;;;;5043611;28;20209;-28
2023/07/19 04:45:29;;;;;;;3.87;3.33;;;;;;;;;;5053759;28;20271;-24
2023/07/19 04:47:56;;;;;;;5.27;3.33;;;;;;;;;;5032274;28;20203;-27
2023/07/19 04:50:26;;;;;;;8.47;3.93;;;;;;;;;;5050723;28;20217;-25
2023/07/19 04:52:53;;;;;;;5.57;3.77;;;;;;;;;;5051642;28;20202;-25
2023/07/19 04:55:21;;;;;;;5.47;4.20;;;;;;;;;;5033265;28;20211;-24
2023/07/19 04:57:48;;;;;;;5.10;3.60;;;;;;;;;;5048278;28;20213;-24
2023/07/19 05:00:16;;;;;;;3.70;3.37;;;;;;;;;;5041030;28;20225;-25
2023/07/19 05:02:43;;;;;;;5.20;3.83;;;;;;;;;;5033622;28;20418;-23
2023/07/19 05:05:12;;;;;;;5.03;3.70;;;;;;;;;;5040174;28;20213;-28
2023/07/19 05:07:40;;;;;;;4.00;3.60;;;;;;;;;;5045388;28;20206;-26
2023/07/19 05:10:08;;;;;;;4.17;3.70;;;;;;;;;;5032254;28;20227;-25
2023/07/19 05:12:36;;;;;;;4.03;3.63;;;;;;;;;;5048158;28;20205;-23
2023/07/19 05:15:03;;;;;;;5.47;3.80;;;;;;;;;;5033920;28;20202;-26
2023/07/19 05:17:30;;;;;;;4.67;3.60;;;;;;;;;;5032801;28;20559;-25
2023/07/19 05:19:57;;;;;;;4.40;4.00;;;;;;;;;;5044143;28;20226;-26
2023/07/19 05:22:24;;;;;;;4.77;3.37;;;;;;;;;;5039531;28;20555;-23
2023/07/19 05:24:53;;;;;;;4.83;3.83;;;;;;;;;;5033664;28;20203;-23
2023/07/19 05:27:20;;;;;;;4.13;3.30;;;;;;;;;;5048657;28;20214;-22
2023/07/19 05:29:47;;;;;;;5.87;4.33;;;;;;;;;;5044293;28;20271;-26
2023/07/19 05:32:14;;;;;;;4.83;3.67;;;;;;;;;;5053389;28;20206;-24
2023/07/19 05:34:41;;;;;;;5.13;3.70;;;;;;;;;;5051237;28;20202;-25
2023/07/19 05:37:08;;;;;;;5.18;4.13;;;;;;;;;;5041480;28;20206;-25
2023/07/19 05:39:36;;;;;;;4.63;3.50;;;;;;;;;;5038965;28;20679;-26
2023/07/19 05:42:05;;;;;;;6.03;3.87;;;;;;;;;;5048106;28;20638;-26
2023/07/19 05:44:50;;;;;;;6.33;4.00;;;;;;;;;;5050552;28;20206;-27
2023/07/19 05:47:18;;;;;;;5.80;3.92;;;;;;;;;;5037731;28;20354;-26
2023/07/19 05:49:46;;;;;;;8.17;4.30;;;;;;;;;;5053246;28;20229;-24
2023/07/19 05:52:13;;;;;;;6.63;4.30;;;;;;;;;;5051334;28;20212;-24
2023/07/19 05:54:40;;;;;;;4.95;4.45;;;;;;;;;;5050602;28;20212;-24
2023/07/19 05:57:08;;;;;;;5.72;4.45;;;;;;;;;;5046597;28;20205;-23
2023/07/19 05:59:36;;;;;;;6.05;4.05;;;;;;;;;;5052280;28;20476;-22
2023/07/19 06:02:04;;;;;;;7.07;4.63;;;;;;;;;;5052884;28;20202;-24
2023/07/19 06:04:31;;;;;;;6.35;4.43;;;;;;;;;;5051280;28;20223;-24
2023/07/19 06:06:58;;;;;;;5.15;4.55;;;;;;;;;;5049368;28;20210;-24
2023/07/19 06:09:25;;;;;;;5.28;4.45;;;;;;;;;;5043420;28;20221;-25
2023/07/19 06:11:56;;;;;;;6.40;4.65;;;;;;;;;;5040856;28;20208;-24
2023/07/19 06:14:25;;;;;;;6.50;5.20;;;;;;;;;;5037037;28;20216;-24
2023/07/19 06:16:52;;;;;;;5.90;4.75;;;;;;;;;;5030410;28;20203;-25
2023/07/19 06:19:19;;;;;;;6.47;4.80;;;;;;;;;;5036115;28;20283;-26
2023/07/19 06:21:46;;;;;;;6.55;4.82;;;;;;;;;;5039045;28;20217;-28
2023/07/19 06:24:14;;;;;;;5.30;4.55;;;;;;;;;;5045371;28;20298;-38
2023/07/19 06:26:41;;;;;;;7.25;5.10;;;;;;;;;;5050304;28;20211;-33
2023/07/19 06:29:08;;;;;;;8.50;5.43;;;;;;;;;;5049154;28;20235;-30
2023/07/19 06:31:40;;;;;;;6.57;4.90;;;;;;;;;;5052619;28;20199;-36
2023/07/19 06:34:07;;;;;;;9.10;5.22;;;;;;;;;;5052507;28;20216;-29
2023/07/19 06:36:35;;;;;;;6.10;5.10;;;;;;;;;;5049735;28;20823;-33
2023/07/19 06:39:02;;;;;;;5.97;4.65;;;;;;;;;;5041964;28;20222;-36
2023/07/19 06:41:29;;;;;;;5.07;4.38;;;;;;;;;;5049497;28;20214;-29
2023/07/19 06:43:57;;;;;;;6.95;4.60;;;;;;;;;;5049081;28;20212;-36
2023/07/19 06:46:24;;;;;;;7.35;4.68;;;;;;;;;;5037954;28;20211;-34
2023/07/19 06:48:53;;;;;;;7.57;5.30;;;;;;;;;;5047625;28;20237;-26
2023/07/19 06:51:20;;;;;;;12.73;4.97;;;;;;;;;;5040882;28;20207;-29
2023/07/19 06:53:47;;;;;;;8.15;4.53;;;;;;;;;;5045822;28;20211;-33
2023/07/19 06:56:14;;;;;;;9.38;4.72;;;;;;;;;;5043038;28;20648;-32
2023/07/19 06:58:44;;;;;;;7.15;4.25;;;;;;;;;;5047376;28;20243;-26
2023/07/19 07:01:11;;;;;;;7.40;4.65;;;;;;;;;;5039124;28;20220;-35
2023/07/19 07:03:38;;;;;;;7.35;4.90;;;;;;;;;;5047125;28;20204;-29
2023/07/19 07:06:06;;;;;;;5.72;4.53;;;;;;;;;;5049804;28;20215;-33
2023/07/19 07:08:51;;;;;;;8.43;4.95;;;;;;;;;;5046328;28;20225;-31
2023/07/19 07:11:18;;;;;;;5.70;4.28;;;;;;;;;;5044587;28;20204;-31
2023/07/19 07:13:46;;;;;;;7.35;4.38;;;;;;;;;;5047473;28;20211;-35
2023/07/19 07:16:13;;;;;;;9.60;3.95;;;;;;;;;;5049004;28;20205;-33
2023/07/19 07:18:40;;;;;;;7.47;4.40;;;;;;;;;;5042993;28;20308;-32
2023/07/19 07:21:16;;;;;;;5.72;4.18;;;;;;;;;;5045052;28;20230;-32
2023/07/19 07:23:44;;;;;;;19.70;4.70;;;;;;;;;;5052561;28;20220;-38
2023/07/19 07:26:11;;;;;;;4.47;3.58;;;;;;;;;;5047789;28;20210;-36
2023/07/19 07:28:38;;;;;;;6.32;3.65;;;;;;;;;;5043338;28;20702;-26
2023/07/19 07:31:08;;;;;;;3.95;2.92;;;;;;;;;;5046193;28;20218;-36
2023/07/19 07:33:35;;;;;;;5.05;2.83;;;;;;;;;;5050579;28;20225;-36
2023/07/19 07:36:03;;;;;;;6.10;3.63;;;;;;;;;;5049570;28;20202;-34
2023/07/19 07:38:31;;;;;;;5.22;3.75;;;;;;;;;;5045520;28;20228;-33
2023/07/19 07:41:02;;;;;;;7.70;3.70;;;;;;;;;;5053391;28;20220;-36
2023/07/19 07:43:30;;;;;;;5.00;3.30;;;;;;;;;;5044551;28;20203;-35
2023/07/19 07:45:57;;;;;;;7.85;3.42;;;;;;;;;;5047206;28;20202;-30
2023/07/19 07:48:24;;;;;;;4.95;3.83;;;;;;;;;;5045088;28;20221;-30
2023/07/19 07:50:51;;;;;;;5.60;3.72;;;;;;;;;;5047237;28;20222;-33
2023/07/19 07:53:19;;;;;;;4.72;3.42;;;;;;;;;;5043649;28;20202;-32
2023/07/19 07:55:48;;;;;;;5.47;3.25;;;;;;;;;;5043143;28;20656;-33
2023/07/19 07:58:15;;;;;;;4.50;3.13;;;;;;;;;;5050406;28;20285;-35
2023/07/19 08:00:42;;;;;;;7.85;3.55;;;;;;;;;;5045471;28;20280;-36
2023/07/19 08:03:09;;;;;;;6.00;3.35;;;;;;;;;;5045016;28;20213;-34
2023/07/19 08:05:37;;;;;;;6.88;3.58;;;;;;;;;;5048423;28;20243;-32
2023/07/19 08:08:06;;;;;;;5.43;3.03;;;;;;;;;;5041198;28;20395;-34
2023/07/19 08:10:33;;;;;;;5.20;3.10;;;;;;;;;;5049194;28;20214;-36
2023/07/19 08:13:01;;;;;;;9.13;3.15;;;;;;;;;;5048342;28;20674;-32
2023/07/19 08:15:28;;;;;;;5.22;2.95;;;;;;;;;;5041407;28;20251;-36
2023/07/19 08:17:55;;;;;;;5.65;3.38;;;;;;;;;;5040054;28;20208;-34
2023/07/19 08:20:24;;;;;;;6.95;3.42;;;;;;;;;;5051835;28;20224;-32
2023/07/19 08:22:51;;;;;;;8.50;3.40;;;;;;;;;;5051245;28;20305;-35
2023/07/19 08:25:20;;;;;;;5.53;2.97;;;;;;;;;;5043283;28;20293;-31
2023/07/19 08:27:47;;;;;;;4.18;3.03;;;;;;;;;;5048098;28;20198;-32
2023/07/19 08:30:16;;;;;;;5.28;3.60;;;;;;;;;;5040716;28;20228;-35
2023/07/19 08:32:44;;;;;;;6.25;2.88;;;;;;;;;;5038461;28;20199;-37
2023/07/19 08:35:12;;;;;;;7.43;3.20;;;;;;;;;;5047822;28;20214;-29
2023/07/19 08:37:39;;;;;;;5.40;2.50;;;;;;;;;;5046762;28;20201;-31
2023/07/19 08:40:07;;;;;;;10.93;4.03;;;;;;;;;;5034452;28;20218;-36
2023/07/19 08:42:34;;;;;;;4.55;2.78;;;;;;;;;;5049410;28;20285;-32
2023/07/19 08:45:02;;;;;;;3.65;2.60;;;;;;;;;;5042317;28;20206;-35
2023/07/19 08:47:31;;;;;;;3.72;2.45;;;;;;;;;;5041071;28;20191;-30
2023/07/19 08:50:05;;;;;;;7.13;2.45;;;;;;;;;;5048662;28;20639;-35
2023/07/19 08:52:33;;;;;;;7.35;3.10;;;;;;;;;;5040852;28;20571;-30
2023/07/19 08:55:00;;;;;;;2.90;2.40;;;;;;;;;;5045826;28;20202;-34
2023/07/19 08:57:27;;;;;;;5.18;2.83;;;;;;;;;;5047024;28;20793;-34
2023/07/19 08:59:54;;;;;;;3.95;2.80;;;;;;;;;;5042344;28;20217;-34
2023/07/19 09:02:22;;;;;;;3.90;2.53;;;;;;;;;;5042372;28;20214;-38
2023/07/19 09:05:10;;;;;;;3.53;2.50;;;;;;;;;;5039807;28;20697;-34
2023/07/19 09:07:37;;;;;;;2.60;1.98;;;;;;;;;;5039095;28;20436;-35
2023/07/19 09:10:05;;;;;;;5.50;2.50;;;;;;;;;;5035256;28;20222;-33
2023/07/19 09:15:36;;;;;;;4.82;1.95;;;;;;;;;;5054755;28;20649;-31
2023/07/19 09:18:05;;;;;;;2.00;1.83;;;;;;;;;;5050601;28;20209;-36
2023/07/19 09:20:34;;;;;;;2.83;2.33;;;;;;;;;;5044579;28;20209;-33
2023/07/19 09:23:04;;;;;;;2.08;1.90;;;;;;;;;;5040349;28;20376;-33
2023/07/19 09:25:32;;;;;;;4.32;1.98;;;;;;;;;;5042820;28;20208;-32
2023/07/19 09:27:59;;;;;;;2.33;1.70;;;;;;;;;;5046533;28;20202;-31
2023/07/19 09:30:26;;;;;;;1.92;1.73;;;;;;;;;;5044372;28;20248;-31
2023/07/19 09:33:00;;;;;;;2.58;1.52;;;;;;;;;;5033192;28;20210;-31
2023/07/19 09:35:27;;;;;;;1.35;1.27;;;;;;;;;;5046825;28;20214;-31
2023/07/19 09:37:58;;;;;;;2.95;1.67;;;;;;;;;;5052029;28;20209;-35
2023/07/19 09:40:25;;;;;;;1.85;1.35;;;;;;;;;;5047771;28;20648;-32
2023/07/19 09:42:55;;;;;;;4.30;1.60;;;;;;;;;;5045738;28;20757;-34
2023/07/19 09:45:24;;;;;;;2.50;1.73;;;;;;;;;;5048873;28;20638;-32
2023/07/19 09:47:51;;;;;;;2.25;1.40;;;;;;;;;;5048201;28;20213;-32
2023/07/19 09:50:19;;;;;;;1.90;1.58;;;;;;;;;;5047512;28;20240;-35
2023/07/19 09:52:48;;;;;;;1.52;1.40;;;;;;;;;;5048733;28;20264;-36
2023/07/19 09:55:17;;;;;;;1.30;1.20;;;;;;;;;;5038134;28;20202;-31
2023/07/19 09:57:48;;;;;;;1.95;1.40;;;;;;;;;;5045381;28;20655;-35
2023/07/19 10:00:20;;;;;;;1.83;1.58;;;;;;;;;;5045651;28;20226;-29
2023/07/19 10:02:47;;;;;;;4.50;1.65;;;;;;;;;;5042834;28;20615;-31
2023/07/19 10:05:14;;;;;;;2.38;1.30;;;;;;;;;;5045128;28;20217;-33
2023/07/19 10:07:50;;;;;;;6.18;1.70;;;;;;;;;;5037638;28;20213;-31
2023/07/19 10:10:20;;;;;;;3.25;1.50;;;;;;;;;;5050566;28;20217;-30
2023/07/19 10:12:47;;;;;;;1.85;1.40;;;;;;;;;;5049618;28;20251;-31
2023/07/19 10:15:16;;;;;;;3.78;1.75;;;;;;;;;;5040810;28;20256;-36
2023/07/19 10:17:54;;;;;;;2.72;1.33;;;;;;;;;;5047752;28;20202;-33
2023/07/19 10:20:23;;;;;;;2.35;1.40;;;;;;;;;;5048580;28;20225;-33
2023/07/19 10:22:51;;;;;;;6.32;1.73;;;;;;;;;;5049217;28;20220;-31
2023/07/19 10:25:21;;;;;;;7.22;1.55;;;;;;;;;;5049781;28;20592;-27
2023/07/19 10:27:56;;;;;;;1.98;1.52;;;;;;;;;;5045692;28;20260;-27
2023/07/19 10:30:24;;;;;;;3.00;1.40;;;;;;;;;;5043012;28;20229;-31
2023/07/19 10:32:54;;;;;;;2.50;1.75;;;;;;;;;;5037519;28;20225;-33
2023/07/19 10:35:33;;;;;;;8.02;1.70;;;;;;;;;;5040793;28;20660;-32
2023/07/19 10:38:00;;;;;;;2.58;1.50;;;;;;;;;;5043948;28;20197;-32
2023/07/19 10:40:29;;;;;;;3.60;1.33;;;;;;;;;;5046739;28;20197;-36
2023/07/19 10:42:56;;;;;;;2.40;1.15;;;;;;;;;;5045111;28;20202;-32
2023/07/19 10:45:25;;;;;;;5.03;1.80;;;;;;;;;;5040299;28;20202;-32
2023/07/19 10:47:52;;;;;;;2.70;1.45;;;;;;;;;;5032776;28;20198;-28
2023/07/19 10:50:19;;;;;;;2.00;1.60;;;;;;;;;;5045604;28;20230;-30
2023/07/19 10:52:47;;;;;;;1.95;1.77;;;;;;;;;;5042421;28;20236;-33
2023/07/19 10:55:24;;;;;;;3.40;1.60;;;;;;;;;;5038361;28;20253;-37
2023/07/19 10:57:52;;;;;;;2.15;1.50;;;;;;;;;;5043733;28;20194;-28
2023/07/19 11:00:20;;;;;;;2.08;1.25;;;;;;;;;;5042433;28;20316;-32
2023/07/19 11:02:47;;;;;;;1.70;1.60;;;;;;;;;;5046086;28;20625;-32
2023/07/19 11:05:15;;;;;;;3.65;1.70;;;;;;;;;;5049039;28;20212;-35
2023/07/19 11:07:52;;;;;;;3.65;1.30;;;;;;;;;;5040721;28;20240;-26
2023/07/19 11:10:20;;;;;;;2.53;1.30;;;;;;;;;;5038714;28;20236;-32
2023/07/19 11:12:47;;;;;;;2.38;1.40;;;;;;;;;;5049987;28;20220;-33
2023/07/19 11:15:16;;;;;;;1.98;1.48;;;;;;;;;;5041979;28;20198;-33
2023/07/19 11:17:45;;;;;;;2.83;1.40;;;;;;;;;;5038993;28;20644;-40
2023/07/19 11:20:13;;;;;;;4.35;2.13;;;;;;;;;;5046660;28;20696;-28
2023/07/19 11:22:40;;;;;;;1.50;1.40;;;;;;;;;;5047898;28;20216;-29
2023/07/19 11:25:11;;;;;;;3.20;1.67;;;;;;;;;;5037306;28;20233;-32
2023/07/19 11:27:40;;;;;;;2.20;1.60;;;;;;;;;;5050278;28;20209;-33
2023/07/19 11:30:08;;;;;;;1.52;1.23;;;;;;;;;;5038042;28;20225;-39
2023/07/19 11:32:44;;;;;;;5.13;1.95;;;;;;;;;;5045579;28;20222;-29
2023/07/19 11:35:11;;;;;;;8.82;1.48;;;;;;;;;;5044168;28;20213;-31
2023/07/19 11:37:38;;;;;;;2.22;1.60;;;;;;;;;;5040485;28;20736;-35
2023/07/19 11:40:16;;;;;;;3.03;1.70;;;;;;;;;;5043608;28;20279;-33
2023/07/19 11:42:44;;;;;;;1.75;1.65;;;;;;;;;;5054053;28;20220;-27
2023/07/19 11:45:13;;;;;;;2.60;1.67;;;;;;;;;;5051622;28;20209;-34
2023/07/19 11:47:41;;;;;;;2.20;1.35;;;;;;;;;;5037157;28;20206;-28
2023/07/19 11:50:10;;;;;;;2.60;1.60;;;;;;;;;;5049021;28;20280;-31
2023/07/19 11:52:45;;;;;;;4.07;1.30;;;;;;;;;;5049988;28;20225;-34
2023/07/19 11:55:13;;;;;;;2.33;1.38;;;;;;;;;;5041911;28;20232;-33
2023/07/19 11:57:40;;;;;;;5.05;1.50;;;;;;;;;;5049640;28;20232;-32
2023/07/19 12:00:09;;;;;;;1.80;1.20;;;;;;;;;;5041912;28;20234;-29
2023/07/19 12:02:36;;;;;;;3.72;1.77;;;;;;;;;;5043998;28;20210;-32
2023/07/19 12:05:04;;;;;;;6.55;1.60;;;;;;;;;;5054013;28;20390;-34
2023/07/19 12:07:33;;;;;;;3.08;1.48;;;;;;;;;;5044400;28;20217;-35
2023/07/19 12:10:03;;;;;;;1.83;1.58;;;;;;;;;;5047509;28;20233;-29
2023/07/19 12:12:30;;;;;;;3.15;1.85;;;;;;;;;;5048957;28;20312;-31
2023/07/19 12:15:07;;;;;;;1.40;1.30;;;;;;;;;;5052782;28;20542;-31
2023/07/19 12:17:36;;;;;;;2.53;1.73;;;;;;;;;;5045331;28;20776;-37
2023/07/19 12:20:04;;;;;;;5.20;1.52;;;;;;;;;;5045775;28;20217;-31
2023/07/19 12:22:33;;;;;;;5.05;1.73;;;;;;;;;;5044170;28;20209;-33
2023/07/19 12:25:04;;;;;;;2.55;1.80;;;;;;;;;;5045085;28;20222;-33
2023/07/19 12:27:40;;;;;;;2.97;1.80;;;;;;;;;;5047780;28;20248;-32
2023/07/19 12:30:09;;;;;;;3.97;1.67;;;;;;;;;;5044750;28;20218;-34
2023/07/19 12:32:52;;;;;;;2.22;1.85;;;;;;;;;;5035740;28;20217;-28
2023/07/19 12:35:20;;;;;;;2.17;1.50;;;;;;;;;;5045561;28;20577;-30
2023/07/19 12:37:48;;;;;;;4.07;1.88;;;;;;;;;;5041074;28;20834;-31
2023/07/19 12:40:16;;;;;;;3.67;2.08;;;;;;;;;;5036109;28;20221;-31
2023/07/19 12:42:43;;;;;;;5.70;2.17;;;;;;;;;;5041878;28;20982;-30
2023/07/19 12:45:10;;;;;;;2.60;1.75;;;;;;;;;;5051608;28;20217;-30
2023/07/19 12:47:38;;;;;;;3.00;1.88;;;;;;;;;;5038946;28;20202;-30
2023/07/19 12:50:06;;;;;;;4.88;2.03;;;;;;;;;;5046429;28;20245;-34
2023/07/19 12:52:34;;;;;;;7.85;2.13;;;;;;;;;;5044946;28;20787;-30
2023/07/19 12:55:03;;;;;;;2.72;2.00;;;;;;;;;;5042854;28;20217;-29
2023/07/19 12:57:30;;;;;;;2.92;1.90;;;;;;;;;;5046295;28;20255;-28
2023/07/19 12:59:57;;;;;;;2.20;1.80;;;;;;;;;;5036472;28;20221;-28
2023/07/19 13:02:25;;;;;;;2.88;2.05;;;;;;;;;;5047792;28;20198;-35
2023/07/19 13:04:52;;;;;;;3.92;2.22;;;;;;;;;;5041080;28;20236;-30
2023/07/19 13:07:22;;;;;;;7.28;2.15;;;;;;;;;;5041178;28;20286;-36
2023/07/19 13:09:49;;;;;;;2.35;2.05;;;;;;;;;;5049330;28;20253;-35
2023/07/19 13:12:19;;;;;;;2.25;2.00;;;;;;;;;;5043961;28;20581;-32
2023/07/19 13:14:46;;;;;;;5.95;2.28;;;;;;;;;;5041757;28;20343;-31
2023/07/19 13:17:13;;;;;;;3.25;2.53;;;;;;;;;;5040913;28;20198;-28
2023/07/19 13:19:41;;;;;;;4.07;2.25;;;;;;;;;;5040619;28;20229;-32
2023/07/19 13:22:09;;;;;;;3.78;2.10;;;;;;;;;;5045333;28;20203;-29
2023/07/19 13:24:36;;;;;;;2.85;2.10;;;;;;;;;;5038023;28;20203;-33
2023/07/19 13:27:06;;;;;;;4.07;2.30;;;;;;;;;;5042900;28;20214;-34
2023/07/19 13:29:34;;;;;;;2.45;2.10;;;;;;;;;;5041118;28;20230;-32
2023/07/19 13:32:02;;;;;;;2.72;2.15;;;;;;;;;;5044495;28;20684;-28
2023/07/19 13:34:29;;;;;;;5.57;2.10;;;;;;;;;;5046477;28;20292;-31
2023/07/19 13:36:58;;;;;;;5.78;2.10;;;;;;;;;;5046807;28;20259;-30
2023/07/19 13:39:25;;;;;;;3.13;2.42;;;;;;;;;;5043289;28;20244;-31
2023/07/19 13:41:52;;;;;;;6.55;2.28;;;;;;;;;;5044596;28;20205;-31
2023/07/19 13:44:19;;;;;;;5.15;2.53;;;;;;;;;;5044402;28;20226;-31
2023/07/19 13:46:48;;;;;;;4.20;2.25;;;;;;;;;;5040286;28;20225;-31
2023/07/19 13:49:15;;;;;;;3.75;2.40;;;;;;;;;;5041975;28;20226;-36
2023/07/19 13:51:42;;;;;;;4.00;2.45;;;;;;;;;;5045381;28;20261;-36
2023/07/19 13:54:09;;;;;;;5.70;2.30;;;;;;;;;;5038164;28;20227;-31
2023/07/19 13:56:37;;;;;;;3.90;2.33;;;;;;;;;;5050008;28;20205;-34
2023/07/19 13:59:04;;;;;;;3.20;2.90;;;;;;;;;;5039877;28;20234;-34
2023/07/19 14:01:31;;;;;;;5.10;2.78;;;;;;;;;;5045276;28;20193;-29
2023/07/19 14:04:02;;;;;;;3.50;2.47;;;;;;;;;;5051937;28;21801;-31
2023/07/19 14:06:33;;;;;;;3.45;2.75;;;;;;;;;;5047043;28;20205;-32
2023/07/19 14:09:00;;;;;;;3.97;2.53;;;;;;;;;;5021879;28;20225;-32
2023/07/19 14:11:27;;;;;;;7.40;2.60;;;;;;;;;;5046675;28;20233;-33
2023/07/19 14:13:54;;;;;;;5.43;2.60;;;;;;;;;;5041822;28;20297;-31
2023/07/19 14:16:22;;;;;;;4.60;2.33;;;;;;;;;;5046496;28;20663;-33
2023/07/19 14:18:49;;;;;;;3.33;1.65;;;;;;;;;;5046573;28;20248;-32
2023/07/19 14:21:18;;;;;;;5.45;2.85;;;;;;;;;;5047513;28;20583;-33
2023/07/19 14:23:46;;;;;;;4.75;2.60;;;;;;;;;;5050846;28;20213;-34
2023/07/19 14:26:13;;;;;;;3.55;2.38;;;;;;;;;;5046088;28;20205;-30
2023/07/19 14:28:40;;;;;;;3.83;2.67;;;;;;;;;;5040523;28;20316;-35
2023/07/19 14:31:07;;;;;;;3.25;2.42;;;;;;;;;;5047939;28;20313;-29
2023/07/19 14:33:34;;;;;;;4.35;2.35;;;;;;;;;;5042329;28;20275;-31
2023/07/19 14:36:13;;;;;;;3.40;2.60;;;;;;;;;;5043225;28;20206;-30
2023/07/19 14:38:41;;;;;;;3.72;2.53;;;;;;;;;;5039594;28;20218;-33
2023/07/19 14:41:08;;;;;;;5.00;2.30;;;;;;;;;;5040034;28;20216;-38
2023/07/19 14:43:36;;;;;;;4.03;2.53;;;;;;;;;;5037540;28;20277;-32
2023/07/19 14:46:03;;;;;;;2.85;2.30;;;;;;;;;;5044498;28;20202;-34
2023/07/19 14:48:30;;;;;;;5.85;2.70;;;;;;;;;;5045346;28;20732;-30
2023/07/19 14:50:57;;;;;;;2.80;2.55;;;;;;;;;;5048155;28;20216;-35